sensor_id;sensor_type;location;lat;lon;timestamp;P1;durP1;ratioP1;P2;durP2;ratioP2
28455;SDS011;15682;56.742;38.866;2023-08-07T00:00:56;10.7;;;3.4;;
28455;SDS011;15682;56.742;38.866;2023-08-07T00:02:57;7.5;;;3.5;;
28455;SDS011;15682;56.742;38.866;2023-08-07T00:04:57;10.4;;;3.5;;
28455;SDS011;15682;56.742;38.866;2023-08-07T00:06:57;8.9;;;3.8;;
28455;SDS011;15682;56.742;38.866;2023-08-07T00:08:58;7.3;;;3.6;;
28455;SDS011;15682;56.742;38.866;2023-08-07T00:11:04;8.8;;;3.2;;
28455;SDS011;15682;56.742;38.866;2023-08-07T00:12:59;11.5;;;3.6;;
28455;SDS011;15682;56.742;38.866;2023-08-07T00:14:59;6.7;;;3.1;;
28455;SDS011;15682;56.742;38.866;2023-08-07T00:17:00;9.9;;;3.7;;
28455;SDS011;15682;56.742;38.866;2023-08-07T00:19:01;8.2;;;3.7;;
28455;SDS011;15682;56.742;38.866;2023-08-07T00:21:00;6.4;;;3.0;;
28455;SDS011;15682;56.742;38.866;2023-08-07T00:23:01;7.5;;;3.4;;
28455;SDS011;15682;56.742;38.866;2023-08-07T00:25:01;10.1;;;4.0;;
28455;SDS011;15682;56.742;38.866;2023-08-07T00:27:02;8.6;;;3.8;;
28455;SDS011;15682;56.742;38.866;2023-08-07T00:29:03;8.7;;;3.5;;
28455;SDS011;15682;56.742;38.866;2023-08-07T00:31:03;5.0;;;3.5;;
28455;SDS011;15682;56.742;38.866;2023-08-07T00:33:03;7.2;;;3.3;;
28455;SDS011;15682;56.742;38.866;2023-08-07T00:35:04;9.9;;;3.8;;
28455;SDS011;15682;56.742;38.866;2023-08-07T00:37:04;7.3;;;3.5;;
28455;SDS011;15682;56.742;38.866;2023-08-07T00:39:04;9.7;;;3.4;;
28455;SDS011;15682;56.742;38.866;2023-08-07T00:41:05;9.0;;;3.3;;
28455;SDS011;15682;56.742;38.866;2023-08-07T00:43:05;8.2;;;3.6;;
28455;SDS011;15682;56.742;38.866;2023-08-07T00:45:06;8.3;;;3.3;;
28455;SDS011;15682;56.742;38.866;2023-08-07T00:47:06;11.7;;;3.1;;
28455;SDS011;15682;56.742;38.866;2023-08-07T00:49:06;8.7;;;3.1;;
28455;SDS011;15682;56.742;38.866;2023-08-07T00:51:07;8.6;;;3.9;;
28455;SDS011;15682;56.742;38.866;2023-08-07T00:53:07;9.2;;;3.2;;
28455;SDS011;15682;56.742;38.866;2023-08-07T00:55:08;10.9;;;3.0;;
28455;SDS011;15682;56.742;38.866;2023-08-07T00:57:09;8.1;;;3.2;;
28455;SDS011;15682;56.742;38.866;2023-08-07T00:59:09;7.6;;;3.4;;
28455;SDS011;15682;56.742;38.866;2023-08-07T01:01:09;9.0;;;3.6;;
28455;SDS011;15682;56.742;38.866;2023-08-07T01:03:10;8.3;;;3.3;;
28455;SDS011;15682;56.742;38.866;2023-08-07T01:05:10;8.1;;;3.3;;
28455;SDS011;15682;56.742;38.866;2023-08-07T01:07:10;8.9;;;3.4;;
28455;SDS011;15682;56.742;38.866;2023-08-07T01:09:11;9.6;;;3.3;;
28455;SDS011;15682;56.742;38.866;2023-08-07T01:11:15;10.8;;;3.4;;
28455;SDS011;15682;56.742;38.866;2023-08-07T01:13:16;9.1;;;3.5;;
28455;SDS011;15682;56.742;38.866;2023-08-07T01:15:12;9.8;;;3.4;;
28455;SDS011;15682;56.742;38.866;2023-08-07T01:17:14;6.7;;;3.3;;
28455;SDS011;15682;56.742;38.866;2023-08-07T01:19:16;10.1;;;3.4;;
28455;SDS011;15682;56.742;38.866;2023-08-07T01:21:17;10.1;;;3.3;;
28455;SDS011;15682;56.742;38.866;2023-08-07T01:23:14;11.2;;;3.6;;
28455;SDS011;15682;56.742;38.866;2023-08-07T01:25:14;10.3;;;4.0;;
28455;SDS011;15682;56.742;38.866;2023-08-07T01:27:18;13.0;;;3.7;;
28455;SDS011;15682;56.742;38.866;2023-08-07T01:29:17;7.2;;;3.7;;
28455;SDS011;15682;56.742;38.866;2023-08-07T01:31:15;7.4;;;3.4;;
28455;SDS011;15682;56.742;38.866;2023-08-07T01:33:16;11.1;;;3.6;;
28455;SDS011;15682;56.742;38.866;2023-08-07T01:35:16;6.5;;;3.2;;
28455;SDS011;15682;56.742;38.866;2023-08-07T01:37:17;11.3;;;3.6;;
28455;SDS011;15682;56.742;38.866;2023-08-07T01:39:17;7.8;;;3.8;;
28455;SDS011;15682;56.742;38.866;2023-08-07T01:41:17;13.2;;;3.7;;
28455;SDS011;15682;56.742;38.866;2023-08-07T01:43:18;12.2;;;4.0;;
28455;SDS011;15682;56.742;38.866;2023-08-07T01:45:23;15.6;;;4.1;;
28455;SDS011;15682;56.742;38.866;2023-08-07T01:47:19;8.9;;;3.6;;
28455;SDS011;15682;56.742;38.866;2023-08-07T01:49:19;9.6;;;4.1;;
28455;SDS011;15682;56.742;38.866;2023-08-07T01:51:19;10.5;;;3.7;;
28455;SDS011;15682;56.742;38.866;2023-08-07T01:53:20;14.2;;;4.1;;
28455;SDS011;15682;56.742;38.866;2023-08-07T01:55:20;14.6;;;3.6;;
28455;SDS011;15682;56.742;38.866;2023-08-07T01:57:21;12.3;;;3.8;;
28455;SDS011;15682;56.742;38.866;2023-08-07T01:59:21;14.4;;;3.7;;
28455;SDS011;15682;56.742;38.866;2023-08-07T02:01:21;16.1;;;3.6;;
28455;SDS011;15682;56.742;38.866;2023-08-07T02:03:22;13.5;;;3.9;;
28455;SDS011;15682;56.742;38.866;2023-08-07T02:05:22;10.1;;;3.8;;
28455;SDS011;15682;56.742;38.866;2023-08-07T02:07:23;15.3;;;4.1;;
28455;SDS011;15682;56.742;38.866;2023-08-07T02:09:23;13.5;;;4.7;;
28455;SDS011;15682;56.742;38.866;2023-08-07T02:11:24;12.2;;;3.9;;
28455;SDS011;15682;56.742;38.866;2023-08-07T02:13:24;9.7;;;4.1;;
28455;SDS011;15682;56.742;38.866;2023-08-07T02:15:24;9.7;;;4.1;;
28455;SDS011;15682;56.742;38.866;2023-08-07T02:17:25;10.2;;;4.2;;
28455;SDS011;15682;56.742;38.866;2023-08-07T02:19:25;13.4;;;4.3;;
28455;SDS011;15682;56.742;38.866;2023-08-07T02:21:26;9.3;;;4.0;;
28455;SDS011;15682;56.742;38.866;2023-08-07T02:23:26;15.4;;;4.0;;
28455;SDS011;15682;56.742;38.866;2023-08-07T02:25:26;15.8;;;4.2;;
28455;SDS011;15682;56.742;38.866;2023-08-07T02:27:27;11.4;;;4.3;;
28455;SDS011;15682;56.742;38.866;2023-08-07T02:29:27;10.4;;;3.8;;
28455;SDS011;15682;56.742;38.866;2023-08-07T02:31:28;12.4;;;3.8;;
28455;SDS011;15682;56.742;38.866;2023-08-07T02:33:28;18.0;;;3.9;;
28455;SDS011;15682;56.742;38.866;2023-08-07T02:35:28;19.1;;;4.2;;
28455;SDS011;15682;56.742;38.866;2023-08-07T02:37:29;15.7;;;3.8;;
28455;SDS011;15682;56.742;38.866;2023-08-07T02:39:30;17.7;;;3.9;;
28455;SDS011;15682;56.742;38.866;2023-08-07T02:41:30;14.9;;;3.9;;
28455;SDS011;15682;56.742;38.866;2023-08-07T02:43:30;16.7;;;4.1;;
28455;SDS011;15682;56.742;38.866;2023-08-07T02:45:30;13.0;;;4.2;;
28455;SDS011;15682;56.742;38.866;2023-08-07T02:47:31;16.2;;;3.7;;
28455;SDS011;15682;56.742;38.866;2023-08-07T02:49:31;15.0;;;3.8;;
28455;SDS011;15682;56.742;38.866;2023-08-07T02:51:32;14.9;;;3.6;;
28455;SDS011;15682;56.742;38.866;2023-08-07T02:53:32;9.5;;;3.5;;
28455;SDS011;15682;56.742;38.866;2023-08-07T02:55:32;16.7;;;3.5;;
28455;SDS011;15682;56.742;38.866;2023-08-07T02:57:33;13.6;;;3.4;;
28455;SDS011;15682;56.742;38.866;2023-08-07T02:59:33;15.3;;;3.5;;
28455;SDS011;15682;56.742;38.866;2023-08-07T03:01:34;14.1;;;3.1;;
28455;SDS011;15682;56.742;38.866;2023-08-07T03:03:34;15.1;;;3.5;;
28455;SDS011;15682;56.742;38.866;2023-08-07T03:05:35;9.2;;;3.6;;
28455;SDS011;15682;56.742;38.866;2023-08-07T03:07:35;10.9;;;3.4;;
28455;SDS011;15682;56.742;38.866;2023-08-07T03:09:35;8.0;;;3.1;;
28455;SDS011;15682;56.742;38.866;2023-08-07T03:11:36;10.9;;;3.1;;
28455;SDS011;15682;56.742;38.866;2023-08-07T03:13:36;10.2;;;3.3;;
28455;SDS011;15682;56.742;38.866;2023-08-07T03:15:37;13.8;;;3.3;;
28455;SDS011;15682;56.742;38.866;2023-08-07T03:17:37;9.9;;;2.9;;
28455;SDS011;15682;56.742;38.866;2023-08-07T03:19:39;11.8;;;3.2;;
28455;SDS011;15682;56.742;38.866;2023-08-07T03:21:38;8.3;;;3.2;;
28455;SDS011;15682;56.742;38.866;2023-08-07T03:23:39;7.0;;;3.1;;
28455;SDS011;15682;56.742;38.866;2023-08-07T03:25:39;11.6;;;3.1;;
28455;SDS011;15682;56.742;38.866;2023-08-07T03:27:40;8.7;;;3.2;;
28455;SDS011;15682;56.742;38.866;2023-08-07T03:29:40;8.4;;;3.1;;
28455;SDS011;15682;56.742;38.866;2023-08-07T03:31:41;10.1;;;2.9;;
28455;SDS011;15682;56.742;38.866;2023-08-07T03:33:41;9.2;;;3.2;;
28455;SDS011;15682;56.742;38.866;2023-08-07T03:35:41;9.4;;;2.9;;
28455;SDS011;15682;56.742;38.866;2023-08-07T03:37:42;4.9;;;2.7;;
28455;SDS011;15682;56.742;38.866;2023-08-07T03:39:43;8.5;;;3.0;;
28455;SDS011;15682;56.742;38.866;2023-08-07T03:41:43;9.1;;;2.8;;
28455;SDS011;15682;56.742;38.866;2023-08-07T03:43:44;12.8;;;2.7;;
28455;SDS011;15682;56.742;38.866;2023-08-07T03:45:44;9.5;;;3.4;;
28455;SDS011;15682;56.742;38.866;2023-08-07T03:47:45;12.0;;;2.9;;
28455;SDS011;15682;56.742;38.866;2023-08-07T03:49:45;9.3;;;2.8;;
28455;SDS011;15682;56.742;38.866;2023-08-07T03:51:46;9.5;;;2.8;;
28455;SDS011;15682;56.742;38.866;2023-08-07T03:53:46;11.8;;;2.8;;
28455;SDS011;15682;56.742;38.866;2023-08-07T03:55:49;8.0;;;2.9;;
28455;SDS011;15682;56.742;38.866;2023-08-07T03:57:48;11.1;;;3.1;;
28455;SDS011;15682;56.742;38.866;2023-08-07T03:59:48;11.8;;;2.8;;
28455;SDS011;15682;56.742;38.866;2023-08-07T04:01:49;9.1;;;2.7;;
28455;SDS011;15682;56.742;38.866;2023-08-07T04:03:50;9.7;;;2.8;;
28455;SDS011;15682;56.742;38.866;2023-08-07T04:05:51;8.3;;;2.6;;
28455;SDS011;15682;56.742;38.866;2023-08-07T04:07:51;9.5;;;2.9;;
28455;SDS011;15682;56.742;38.866;2023-08-07T04:09:52;11.9;;;2.8;;
28455;SDS011;15682;56.742;38.866;2023-08-07T04:11:53;15.0;;;3.2;;
28455;SDS011;15682;56.742;38.866;2023-08-07T04:13:53;15.5;;;3.2;;
28455;SDS011;15682;56.742;38.866;2023-08-07T04:15:54;13.7;;;3.1;;
28455;SDS011;15682;56.742;38.866;2023-08-07T04:17:55;11.4;;;3.2;;
28455;SDS011;15682;56.742;38.866;2023-08-07T04:19:56;8.2;;;2.9;;
28455;SDS011;15682;56.742;38.866;2023-08-07T04:21:57;11.1;;;3.1;;
28455;SDS011;15682;56.742;38.866;2023-08-07T04:23:57;12.1;;;3.1;;
28455;SDS011;15682;56.742;38.866;2023-08-07T04:25:58;12.8;;;3.3;;
28455;SDS011;15682;56.742;38.866;2023-08-07T04:27:59;14.4;;;3.0;;
28455;SDS011;15682;56.742;38.866;2023-08-07T04:30:00;8.6;;;2.7;;
28455;SDS011;15682;56.742;38.866;2023-08-07T04:32:01;11.5;;;2.9;;
28455;SDS011;15682;56.742;38.866;2023-08-07T04:34:02;12.8;;;2.9;;
28455;SDS011;15682;56.742;38.866;2023-08-07T04:36:03;15.5;;;3.1;;
28455;SDS011;15682;56.742;38.866;2023-08-07T04:38:03;11.0;;;3.0;;
28455;SDS011;15682;56.742;38.866;2023-08-07T04:40:05;10.6;;;3.0;;
28455;SDS011;15682;56.742;38.866;2023-08-07T04:42:05;9.1;;;3.2;;
28455;SDS011;15682;56.742;38.866;2023-08-07T04:44:06;8.0;;;2.6;;
28455;SDS011;15682;56.742;38.866;2023-08-07T04:46:07;8.9;;;2.7;;
28455;SDS011;15682;56.742;38.866;2023-08-07T04:48:08;10.3;;;2.7;;
28455;SDS011;15682;56.742;38.866;2023-08-07T04:50:09;10.2;;;3.0;;
28455;SDS011;15682;56.742;38.866;2023-08-07T04:52:09;18.0;;;3.0;;
28455;SDS011;15682;56.742;38.866;2023-08-07T04:54:10;12.0;;;2.5;;
28455;SDS011;15682;56.742;38.866;2023-08-07T04:56:11;19.6;;;3.0;;
28455;SDS011;15682;56.742;38.866;2023-08-07T04:58:12;10.8;;;2.8;;
28455;SDS011;15682;56.742;38.866;2023-08-07T05:00:14;6.6;;;2.3;;
28455;SDS011;15682;56.742;38.866;2023-08-07T05:02:14;13.8;;;2.9;;
28455;SDS011;15682;56.742;38.866;2023-08-07T05:04:15;8.3;;;2.7;;
28455;SDS011;15682;56.742;38.866;2023-08-07T05:06:16;13.1;;;2.5;;
28455;SDS011;15682;56.742;38.866;2023-08-07T05:08:17;8.6;;;2.5;;
28455;SDS011;15682;56.742;38.866;2023-08-07T05:10:18;12.4;;;2.8;;
28455;SDS011;15682;56.742;38.866;2023-08-07T05:12:19;11.2;;;2.5;;
28455;SDS011;15682;56.742;38.866;2023-08-07T05:14:19;13.0;;;3.0;;
28455;SDS011;15682;56.742;38.866;2023-08-07T05:16:20;8.2;;;2.5;;
28455;SDS011;15682;56.742;38.866;2023-08-07T05:18:21;6.5;;;2.4;;
28455;SDS011;15682;56.742;38.866;2023-08-07T05:20:22;12.1;;;2.9;;
28455;SDS011;15682;56.742;38.866;2023-08-07T05:22:23;14.3;;;3.0;;
28455;SDS011;15682;56.742;38.866;2023-08-07T05:24:24;19.2;;;2.8;;
28455;SDS011;15682;56.742;38.866;2023-08-07T05:26:25;10.4;;;2.5;;
28455;SDS011;15682;56.742;38.866;2023-08-07T05:28:26;14.5;;;3.0;;
28455;SDS011;15682;56.742;38.866;2023-08-07T05:30:27;7.8;;;2.4;;
28455;SDS011;15682;56.742;38.866;2023-08-07T05:32:28;11.8;;;2.8;;
28455;SDS011;15682;56.742;38.866;2023-08-07T05:34:29;9.4;;;2.2;;
28455;SDS011;15682;56.742;38.866;2023-08-07T05:36:30;13.1;;;2.7;;
28455;SDS011;15682;56.742;38.866;2023-08-07T05:38:32;11.5;;;2.1;;
28455;SDS011;15682;56.742;38.866;2023-08-07T05:40:32;14.3;;;2.3;;
28455;SDS011;15682;56.742;38.866;2023-08-07T05:42:32;8.7;;;2.5;;
28455;SDS011;15682;56.742;38.866;2023-08-07T05:44:33;14.2;;;2.7;;
28455;SDS011;15682;56.742;38.866;2023-08-07T05:46:34;7.2;;;2.4;;
28455;SDS011;15682;56.742;38.866;2023-08-07T05:48:35;9.3;;;2.7;;
28455;SDS011;15682;56.742;38.866;2023-08-07T05:50:36;12.1;;;2.5;;
28455;SDS011;15682;56.742;38.866;2023-08-07T05:52:37;10.7;;;2.4;;
28455;SDS011;15682;56.742;38.866;2023-08-07T05:54:38;16.5;;;2.3;;
28455;SDS011;15682;56.742;38.866;2023-08-07T05:56:40;10.9;;;2.4;;
28455;SDS011;15682;56.742;38.866;2023-08-07T05:58:40;21.8;;;2.9;;
28455;SDS011;15682;56.742;38.866;2023-08-07T06:00:41;8.2;;;2.3;;
28455;SDS011;15682;56.742;38.866;2023-08-07T06:02:42;12.8;;;2.2;;
28455;SDS011;15682;56.742;38.866;2023-08-07T06:04:43;5.9;;;2.2;;
28455;SDS011;15682;56.742;38.866;2023-08-07T06:06:44;10.8;;;2.6;;
28455;SDS011;15682;56.742;38.866;2023-08-07T06:08:45;10.8;;;2.4;;
28455;SDS011;15682;56.742;38.866;2023-08-07T06:10:46;19.5;;;2.9;;
28455;SDS011;15682;56.742;38.866;2023-08-07T06:12:47;10.5;;;2.1;;
28455;SDS011;15682;56.742;38.866;2023-08-07T06:14:48;11.6;;;2.2;;
28455;SDS011;15682;56.742;38.866;2023-08-07T06:16:49;9.2;;;2.4;;
28455;SDS011;15682;56.742;38.866;2023-08-07T06:18:50;10.6;;;2.3;;
28455;SDS011;15682;56.742;38.866;2023-08-07T06:20:51;9.5;;;1.9;;
28455;SDS011;15682;56.742;38.866;2023-08-07T06:22:52;9.6;;;2.1;;
28455;SDS011;15682;56.742;38.866;2023-08-07T06:24:53;10.2;;;2.0;;
28455;SDS011;15682;56.742;38.866;2023-08-07T06:26:54;12.7;;;2.3;;
28455;SDS011;15682;56.742;38.866;2023-08-07T06:28:55;7.7;;;2.2;;
28455;SDS011;15682;56.742;38.866;2023-08-07T06:31:00;12.0;;;2.4;;
28455;SDS011;15682;56.742;38.866;2023-08-07T06:32:57;11.2;;;2.5;;
28455;SDS011;15682;56.742;38.866;2023-08-07T06:34:57;11.5;;;2.1;;
28455;SDS011;15682;56.742;38.866;2023-08-07T06:36:58;9.4;;;2.4;;
28455;SDS011;15682;56.742;38.866;2023-08-07T06:38:59;12.3;;;2.0;;
28455;SDS011;15682;56.742;38.866;2023-08-07T06:41:00;31.8;;;3.3;;
28455;SDS011;15682;56.742;38.866;2023-08-07T06:43:01;17.7;;;2.6;;
28455;SDS011;15682;56.742;38.866;2023-08-07T06:45:02;5.7;;;1.9;;
28455;SDS011;15682;56.742;38.866;2023-08-07T06:47:03;4.5;;;2.1;;
28455;SDS011;15682;56.742;38.866;2023-08-07T06:49:04;10.7;;;2.2;;
28455;SDS011;15682;56.742;38.866;2023-08-07T06:51:05;14.1;;;2.2;;
28455;SDS011;15682;56.742;38.866;2023-08-07T06:53:06;9.8;;;2.3;;
28455;SDS011;15682;56.742;38.866;2023-08-07T06:55:07;8.8;;;2.2;;
28455;SDS011;15682;56.742;38.866;2023-08-07T06:57:08;7.1;;;2.2;;
28455;SDS011;15682;56.742;38.866;2023-08-07T06:59:09;10.2;;;2.4;;
28455;SDS011;15682;56.742;38.866;2023-08-07T07:01:10;10.6;;;2.1;;
28455;SDS011;15682;56.742;38.866;2023-08-07T07:03:11;13.9;;;2.3;;
28455;SDS011;15682;56.742;38.866;2023-08-07T07:05:12;8.6;;;2.2;;
28455;SDS011;15682;56.742;38.866;2023-08-07T07:07:13;11.5;;;2.2;;
28455;SDS011;15682;56.742;38.866;2023-08-07T07:09:14;13.8;;;2.2;;
28455;SDS011;15682;56.742;38.866;2023-08-07T07:11:14;10.1;;;2.4;;
28455;SDS011;15682;56.742;38.866;2023-08-07T07:13:15;11.8;;;2.3;;
28455;SDS011;15682;56.742;38.866;2023-08-07T07:15:16;9.0;;;2.2;;
28455;SDS011;15682;56.742;38.866;2023-08-07T07:17:17;11.2;;;2.3;;
28455;SDS011;15682;56.742;38.866;2023-08-07T07:19:18;8.5;;;1.9;;
28455;SDS011;15682;56.742;38.866;2023-08-07T07:21:19;19.6;;;2.4;;
28455;SDS011;15682;56.742;38.866;2023-08-07T07:23:20;12.8;;;2.2;;
28455;SDS011;15682;56.742;38.866;2023-08-07T07:25:21;9.5;;;2.0;;
28455;SDS011;15682;56.742;38.866;2023-08-07T07:27:22;14.2;;;2.2;;
28455;SDS011;15682;56.742;38.866;2023-08-07T07:29:23;14.8;;;2.5;;
28455;SDS011;15682;56.742;38.866;2023-08-07T07:31:24;13.6;;;2.3;;
28455;SDS011;15682;56.742;38.866;2023-08-07T07:33:24;13.5;;;2.1;;
28455;SDS011;15682;56.742;38.866;2023-08-07T07:35:25;11.1;;;2.2;;
28455;SDS011;15682;56.742;38.866;2023-08-07T07:37:26;12.9;;;2.3;;
28455;SDS011;15682;56.742;38.866;2023-08-07T07:39:27;31.8;;;3.1;;
28455;SDS011;15682;56.742;38.866;2023-08-07T07:41:27;11.2;;;2.3;;
28455;SDS011;15682;56.742;38.866;2023-08-07T07:43:28;6.2;;;1.9;;
28455;SDS011;15682;56.742;38.866;2023-08-07T07:45:29;9.0;;;1.8;;
28455;SDS011;15682;56.742;38.866;2023-08-07T07:47:30;6.9;;;2.2;;
28455;SDS011;15682;56.742;38.866;2023-08-07T07:49:32;9.7;;;2.2;;
28455;SDS011;15682;56.742;38.866;2023-08-07T07:51:31;11.9;;;2.2;;
28455;SDS011;15682;56.742;38.866;2023-08-07T07:53:32;22.6;;;2.5;;
28455;SDS011;15682;56.742;38.866;2023-08-07T07:55:32;18.2;;;2.2;;
28455;SDS011;15682;56.742;38.866;2023-08-07T07:57:33;25.5;;;2.2;;
28455;SDS011;15682;56.742;38.866;2023-08-07T07:59:34;49.2;;;3.6;;
28455;SDS011;15682;56.742;38.866;2023-08-07T08:01:34;13.7;;;2.2;;
28455;SDS011;15682;56.742;38.866;2023-08-07T08:03:35;12.9;;;2.2;;
28455;SDS011;15682;56.742;38.866;2023-08-07T08:05:36;8.5;;;2.2;;
28455;SDS011;15682;56.742;38.866;2023-08-07T08:09:37;20.0;;;2.4;;
28455;SDS011;15682;56.742;38.866;2023-08-07T08:11:38;9.3;;;1.9;;
28455;SDS011;15682;56.742;38.866;2023-08-07T08:13:38;10.5;;;2.1;;
28455;SDS011;15682;56.742;38.866;2023-08-07T08:15:39;7.5;;;2.0;;
28455;SDS011;15682;56.742;38.866;2023-08-07T08:17:39;14.3;;;2.5;;
28455;SDS011;15682;56.742;38.866;2023-08-07T08:19:40;17.6;;;2.4;;
28455;SDS011;15682;56.742;38.866;2023-08-07T08:21:41;5.7;;;2.0;;
28455;SDS011;15682;56.742;38.866;2023-08-07T08:23:41;11.1;;;2.0;;
28455;SDS011;15682;56.742;38.866;2023-08-07T08:25:42;10.7;;;2.0;;
28455;SDS011;15682;56.742;38.866;2023-08-07T08:27:43;68.7;;;4.8;;
28455;SDS011;15682;56.742;38.866;2023-08-07T08:29:43;10.7;;;1.7;;
28455;SDS011;15682;56.742;38.866;2023-08-07T08:31:44;13.6;;;1.8;;
28455;SDS011;15682;56.742;38.866;2023-08-07T08:33:45;8.9;;;1.9;;
28455;SDS011;15682;56.742;38.866;2023-08-07T08:35:45;13.2;;;2.1;;
28455;SDS011;15682;56.742;38.866;2023-08-07T08:37:46;11.5;;;2.2;;
28455;SDS011;15682;56.742;38.866;2023-08-07T08:39:47;12.3;;;2.4;;
28455;SDS011;15682;56.742;38.866;2023-08-07T08:41:47;8.3;;;2.2;;
28455;SDS011;15682;56.742;38.866;2023-08-07T08:43:48;10.2;;;2.4;;
28455;SDS011;15682;56.742;38.866;2023-08-07T08:45:48;9.8;;;2.3;;
28455;SDS011;15682;56.742;38.866;2023-08-07T08:47:49;9.9;;;2.2;;
28455;SDS011;15682;56.742;38.866;2023-08-07T08:49:50;9.1;;;2.0;;
28455;SDS011;15682;56.742;38.866;2023-08-07T08:51:50;6.3;;;2.0;;
28455;SDS011;15682;56.742;38.866;2023-08-07T08:53:51;19.0;;;2.5;;
28455;SDS011;15682;56.742;38.866;2023-08-07T08:55:52;7.4;;;2.0;;
28455;SDS011;15682;56.742;38.866;2023-08-07T08:57:52;11.3;;;2.1;;
28455;SDS011;15682;56.742;38.866;2023-08-07T08:59:53;9.5;;;1.8;;
28455;SDS011;15682;56.742;38.866;2023-08-07T09:01:54;9.9;;;2.1;;
28455;SDS011;15682;56.742;38.866;2023-08-07T09:03:54;12.0;;;2.0;;
28455;SDS011;15682;56.742;38.866;2023-08-07T09:05:57;13.1;;;2.1;;
28455;SDS011;15682;56.742;38.866;2023-08-07T09:07:55;10.7;;;2.4;;
28455;SDS011;15682;56.742;38.866;2023-08-07T09:09:56;14.3;;;2.1;;
28455;SDS011;15682;56.742;38.866;2023-08-07T09:11:57;19.8;;;2.4;;
28455;SDS011;15682;56.742;38.866;2023-08-07T09:13:57;13.3;;;2.4;;
28455;SDS011;15682;56.742;38.866;2023-08-07T09:15:58;19.0;;;2.6;;
28455;SDS011;15682;56.742;38.866;2023-08-07T09:17:59;9.7;;;2.1;;
28455;SDS011;15682;56.742;38.866;2023-08-07T09:19:59;12.2;;;2.3;;
28455;SDS011;15682;56.742;38.866;2023-08-07T09:22:00;9.2;;;2.3;;
28455;SDS011;15682;56.742;38.866;2023-08-07T09:24:00;5.3;;;1.9;;
28455;SDS011;15682;56.742;38.866;2023-08-07T09:26:02;10.9;;;1.9;;
28455;SDS011;15682;56.742;38.866;2023-08-07T09:28:02;24.9;;;2.8;;
28455;SDS011;15682;56.742;38.866;2023-08-07T09:30:03;11.7;;;2.3;;
28455;SDS011;15682;56.742;38.866;2023-08-07T09:32:06;24.7;;;2.8;;
28455;SDS011;15682;56.742;38.866;2023-08-07T09:34:04;50.0;;;4.1;;
28455;SDS011;15682;56.742;38.866;2023-08-07T09:36:04;11.8;;;2.1;;
28455;SDS011;15682;56.742;38.866;2023-08-07T09:38:05;7.9;;;1.9;;
28455;SDS011;15682;56.742;38.866;2023-08-07T09:40:06;9.6;;;1.9;;
28455;SDS011;15682;56.742;38.866;2023-08-07T09:42:11;9.4;;;1.8;;
28455;SDS011;15682;56.742;38.866;2023-08-07T09:44:07;8.0;;;2.0;;
28455;SDS011;15682;56.742;38.866;2023-08-07T09:46:07;8.6;;;1.9;;
28455;SDS011;15682;56.742;38.866;2023-08-07T09:48:08;9.5;;;2.2;;
28455;SDS011;15682;56.742;38.866;2023-08-07T09:50:09;31.8;;;3.4;;
28455;SDS011;15682;56.742;38.866;2023-08-07T09:52:10;14.5;;;1.8;;
28455;SDS011;15682;56.742;38.866;2023-08-07T09:54:10;9.4;;;1.7;;
28455;SDS011;15682;56.742;38.866;2023-08-07T09:56:11;11.5;;;2.2;;
28455;SDS011;15682;56.742;38.866;2023-08-07T09:58:11;15.5;;;2.5;;
28455;SDS011;15682;56.742;38.866;2023-08-07T10:00:12;16.3;;;2.9;;
28455;SDS011;15682;56.742;38.866;2023-08-07T10:02:12;13.1;;;2.1;;
28455;SDS011;15682;56.742;38.866;2023-08-07T10:04:13;6.7;;;2.0;;
28455;SDS011;15682;56.742;38.866;2023-08-07T10:06:13;14.8;;;2.2;;
28455;SDS011;15682;56.742;38.866;2023-08-07T10:08:14;14.8;;;1.8;;
28455;SDS011;15682;56.742;38.866;2023-08-07T10:10:15;23.9;;;2.5;;
28455;SDS011;15682;56.742;38.866;2023-08-07T10:12:16;16.2;;;2.5;;
28455;SDS011;15682;56.742;38.866;2023-08-07T10:14:16;13.2;;;1.9;;
28455;SDS011;15682;56.742;38.866;2023-08-07T10:16:16;10.0;;;2.0;;
28455;SDS011;15682;56.742;38.866;2023-08-07T10:18:17;11.4;;;2.0;;
28455;SDS011;15682;56.742;38.866;2023-08-07T10:20:18;8.9;;;1.9;;
28455;SDS011;15682;56.742;38.866;2023-08-07T10:22:19;25.9;;;2.6;;
28455;SDS011;15682;56.742;38.866;2023-08-07T10:24:19;16.4;;;2.5;;
28455;SDS011;15682;56.742;38.866;2023-08-07T10:26:20;8.2;;;2.0;;
28455;SDS011;15682;56.742;38.866;2023-08-07T10:28:20;7.0;;;1.9;;
28455;SDS011;15682;56.742;38.866;2023-08-07T10:30:21;17.1;;;2.2;;
28455;SDS011;15682;56.742;38.866;2023-08-07T10:32:22;13.7;;;2.2;;
28455;SDS011;15682;56.742;38.866;2023-08-07T10:34:22;10.4;;;2.0;;
28455;SDS011;15682;56.742;38.866;2023-08-07T10:36:23;12.6;;;2.0;;
28455;SDS011;15682;56.742;38.866;2023-08-07T10:38:23;11.7;;;2.1;;
28455;SDS011;15682;56.742;38.866;2023-08-07T10:40:24;11.6;;;2.3;;
28455;SDS011;15682;56.742;38.866;2023-08-07T10:42:25;16.1;;;2.0;;
28455;SDS011;15682;56.742;38.866;2023-08-07T10:44:26;13.3;;;2.1;;
28455;SDS011;15682;56.742;38.866;2023-08-07T10:46:26;11.3;;;2.2;;
28455;SDS011;15682;56.742;38.866;2023-08-07T10:48:27;14.4;;;2.3;;
28455;SDS011;15682;56.742;38.866;2023-08-07T10:50:28;17.2;;;2.1;;
28455;SDS011;15682;56.742;38.866;2023-08-07T10:52:28;16.9;;;2.3;;
28455;SDS011;15682;56.742;38.866;2023-08-07T10:54:28;9.8;;;2.3;;
28455;SDS011;15682;56.742;38.866;2023-08-07T10:56:30;21.7;;;2.8;;
28455;SDS011;15682;56.742;38.866;2023-08-07T10:58:30;39.5;;;3.9;;
28455;SDS011;15682;56.742;38.866;2023-08-07T11:00:30;12.9;;;2.1;;
28455;SDS011;15682;56.742;38.866;2023-08-07T11:02:31;12.9;;;2.4;;
28455;SDS011;15682;56.742;38.866;2023-08-07T11:04:31;13.8;;;2.4;;
28455;SDS011;15682;56.742;38.866;2023-08-07T11:06:32;20.0;;;2.5;;
28455;SDS011;15682;56.742;38.866;2023-08-07T11:08:33;11.4;;;2.2;;
28455;SDS011;15682;56.742;38.866;2023-08-07T11:10:33;15.3;;;2.9;;
28455;SDS011;15682;56.742;38.866;2023-08-07T11:12:34;12.6;;;2.5;;
28455;SDS011;15682;56.742;38.866;2023-08-07T11:14:34;15.4;;;2.7;;
28455;SDS011;15682;56.742;38.866;2023-08-07T11:16:35;12.9;;;2.4;;
28455;SDS011;15682;56.742;38.866;2023-08-07T11:18:36;17.5;;;3.0;;
28455;SDS011;15682;56.742;38.866;2023-08-07T11:20:36;9.1;;;2.5;;
28455;SDS011;15682;56.742;38.866;2023-08-07T11:22:38;7.8;;;1.8;;
28455;SDS011;15682;56.742;38.866;2023-08-07T11:24:37;11.0;;;2.2;;
28455;SDS011;15682;56.742;38.866;2023-08-07T11:26:38;21.1;;;2.6;;
28455;SDS011;15682;56.742;38.866;2023-08-07T11:28:39;18.6;;;2.7;;
28455;SDS011;15682;56.742;38.866;2023-08-07T11:30:39;12.7;;;2.1;;
28455;SDS011;15682;56.742;38.866;2023-08-07T11:32:40;6.3;;;1.7;;
28455;SDS011;15682;56.742;38.866;2023-08-07T11:34:41;16.1;;;2.0;;
28455;SDS011;15682;56.742;38.866;2023-08-07T11:36:41;12.1;;;2.3;;
28455;SDS011;15682;56.742;38.866;2023-08-07T11:38:43;13.4;;;2.3;;
28455;SDS011;15682;56.742;38.866;2023-08-07T11:40:42;12.0;;;1.9;;
28455;SDS011;15682;56.742;38.866;2023-08-07T11:42:43;18.0;;;3.2;;
28455;SDS011;15682;56.742;38.866;2023-08-07T11:44:44;15.4;;;2.6;;
28455;SDS011;15682;56.742;38.866;2023-08-07T11:46:44;11.4;;;2.4;;
28455;SDS011;15682;56.742;38.866;2023-08-07T11:48:45;12.7;;;2.7;;
28455;SDS011;15682;56.742;38.866;2023-08-07T11:50:45;12.5;;;2.4;;
28455;SDS011;15682;56.742;38.866;2023-08-07T11:52:46;10.7;;;2.0;;
28455;SDS011;15682;56.742;38.866;2023-08-07T11:54:47;13.8;;;2.5;;
28455;SDS011;15682;56.742;38.866;2023-08-07T11:56:47;8.0;;;2.4;;
28455;SDS011;15682;56.742;38.866;2023-08-07T11:58:48;17.7;;;2.7;;
28455;SDS011;15682;56.742;38.866;2023-08-07T12:00:49;10.2;;;3.0;;
28455;SDS011;15682;56.742;38.866;2023-08-07T12:02:49;11.9;;;2.8;;
28455;SDS011;15682;56.742;38.866;2023-08-07T12:04:50;23.0;;;4.4;;
28455;SDS011;15682;56.742;38.866;2023-08-07T12:06:52;12.1;;;3.0;;
28455;SDS011;15682;56.742;38.866;2023-08-07T12:08:53;11.1;;;2.5;;
28455;SDS011;15682;56.742;38.866;2023-08-07T12:10:53;9.3;;;2.5;;
28455;SDS011;15682;56.742;38.866;2023-08-07T12:12:58;7.9;;;2.4;;